createdAt,value
2022-09-21T00:00:00.775Z,67.17
2022-09-21T00:03:39.688Z,67.29
2022-09-21T00:07:17.021Z,67.18
2022-09-21T00:10:54.485Z,67.25
2022-09-21T00:14:31.330Z,67.34
2022-09-21T00:18:10.727Z,67.27
2022-09-21T00:21:48.797Z,67.59
2022-09-21T00:25:26.665Z,67.62
2022-09-21T00:29:05.461Z,67.88
2022-09-21T00:32:43.116Z,67.61
2022-09-21T00:36:24.572Z,67.62
2022-09-21T00:40:02.660Z,67.70
2022-09-21T00:43:47.901Z,67.77
2022-09-21T00:47:45.795Z,67.82
2022-09-21T00:51:25.403Z,67.87
2022-09-21T00:55:26.497Z,67.70
2022-09-21T00:59:05.206Z,67.85
2022-09-21T01:02:43.665Z,67.97
2022-09-21T01:06:21.507Z,68.05
2022-09-21T01:10:04.618Z,68.15
2022-09-21T01:14:03.072Z,68.19
2022-09-21T01:18:06.304Z,68.22
2022-09-21T01:22:32.883Z,68.35
2022-09-21T01:26:48.512Z,68.21
2022-09-21T01:30:25.965Z,68.25
2022-09-21T01:34:24.813Z,68.21
2022-09-21T01:38:09.501Z,68.58
2022-09-21T01:41:48.743Z,68.32
2022-09-21T01:45:32.773Z,68.43
2022-09-21T01:49:25.860Z,68.31
2022-09-21T01:53:09.251Z,68.32
2022-09-21T01:56:51.716Z,68.25
2022-09-21T02:00:32.471Z,68.32
2022-09-21T02:04:11.864Z,68.19
2022-09-21T02:07:50.857Z,68.37
2022-09-21T02:11:29.839Z,68.78
2022-09-21T02:15:08.428Z,68.46
2022-09-21T02:19:19.855Z,68.68
2022-09-21T02:23:20.854Z,68.66
2022-09-21T02:27:46.198Z,68.64
2022-09-21T02:31:54.253Z,68.60
2022-09-21T02:35:35.181Z,68.83
2022-09-21T02:39:47.848Z,68.79
2022-09-21T02:43:39.750Z,68.73
2022-09-21T02:47:24.607Z,68.77
2022-09-21T02:51:09.492Z,68.56
2022-09-21T02:54:50.020Z,68.37
2022-09-21T02:58:32.402Z,68.42
2022-09-21T03:02:04.041Z,68.39
2022-09-21T03:05:41.165Z,68.40
2022-09-21T03:09:18.009Z,68.33
2022-09-21T03:12:58.242Z,68.30
2022-09-21T03:16:39.370Z,68.25
2022-09-21T03:20:16.111Z,68.21
2022-09-21T03:23:54.904Z,68.10
2022-09-21T03:27:32.054Z,68.11
2022-09-21T03:31:09.446Z,68.03
2022-09-21T03:34:49.223Z,68.00
2022-09-21T03:38:28.005Z,68.09
2022-09-21T03:42:05.364Z,68.18
2022-09-21T03:45:43.329Z,68.40
2022-09-21T03:49:39.967Z,68.32
2022-09-21T03:52:58.813Z,68.57
2022-09-21T03:56:36.727Z,68.55
2022-09-21T04:00:14.700Z,68.55
2022-09-21T04:03:51.650Z,68.40
2022-09-21T04:07:32.886Z,68.27
2022-09-21T04:11:16.434Z,68.39
2022-09-21T04:14:53.642Z,68.16
2022-09-21T04:18:30.991Z,68.16
2022-09-21T04:22:08.960Z,68.20
2022-09-21T04:25:49.280Z,68.26
2022-09-21T04:29:26.127Z,68.11
2022-09-21T04:33:03.077Z,68.09
2022-09-21T04:36:41.665Z,68.11
2022-09-21T04:40:19.239Z,68.05
2022-09-21T04:43:57.168Z,67.95
2022-09-21T04:47:34.974Z,67.93
2022-09-21T04:51:13.242Z,68.10
2022-09-21T04:54:51.406Z,68.12
2022-09-21T04:58:32.957Z,68.10
2022-09-21T05:02:04.990Z,68.05
2022-09-21T05:06:01.802Z,68.09
2022-09-21T05:09:39.610Z,68.23
2022-09-21T05:13:37.887Z,68.18
2022-09-21T05:16:53.352Z,68.30
2022-09-21T05:20:32.550Z,68.29
2022-09-21T05:24:09.803Z,68.14
2022-09-21T05:27:47.662Z,68.17
2022-09-21T05:31:35.589Z,68.18
2022-09-21T05:35:19.767Z,67.95
2022-09-21T05:38:57.349Z,67.74
2022-09-21T05:42:34.400Z,67.87
2022-09-21T05:46:29.358Z,67.82
2022-09-21T05:50:25.229Z,67.81
2022-09-21T05:54:35.826Z,67.64
2022-09-21T05:58:34.936Z,67.61
2022-09-21T06:02:27.636Z,67.59
2022-09-21T06:06:05.239Z,67.39
2022-09-21T06:09:43.430Z,67.02
2022-09-21T06:13:20.473Z,67.13
2022-09-21T06:16:58.137Z,67.30
2022-09-21T06:20:35.872Z,67.07
2022-09-21T06:24:14.149Z,67.09
2022-09-21T06:27:51.139Z,67.04
2022-09-21T06:31:31.949Z,66.92
2022-09-21T06:35:10.643Z,66.75
2022-09-21T06:38:48.407Z,66.83
2022-09-21T06:42:25.186Z,66.74
2022-09-21T06:46:03.915Z,66.67
2022-09-21T06:49:42.601Z,66.64
2022-09-21T06:53:19.766Z,66.28
2022-09-21T06:57:17.490Z,65.85
2022-09-21T07:00:34.600Z,65.78
2022-09-21T07:04:11.722Z,65.69
2022-09-21T07:07:53.500Z,65.42
2022-09-21T07:11:31.049Z,64.97
2022-09-21T07:15:09.569Z,64.48
2022-09-21T07:18:47.528Z,63.88
2022-09-21T07:22:25.961Z,63.40
2022-09-21T07:26:12.948Z,62.87
2022-09-21T07:29:50.009Z,62.62
2022-09-21T07:33:29.920Z,62.21
2022-09-21T07:37:09.726Z,61.95
2022-09-21T07:40:46.708Z,62.20
2022-09-21T07:44:25.881Z,61.45
2022-09-21T07:48:07.115Z,61.13
2022-09-21T07:51:44.161Z,60.85
2022-09-21T07:55:22.083Z,60.93
2022-09-21T07:58:59.487Z,60.92
2022-09-21T08:02:36.696Z,60.83
2022-09-21T08:06:14.505Z,60.72
2022-09-21T08:09:51.373Z,60.57
2022-09-21T08:13:30.389Z,60.41
2022-09-21T08:17:08.515Z,59.96
2022-09-21T08:21:02.449Z,59.55
2022-09-21T08:24:39.500Z,59.26
2022-09-21T08:28:17.472Z,59.13
2022-09-21T08:31:55.216Z,58.96
2022-09-21T08:35:33.332Z,58.94
2022-09-21T08:39:11.814Z,58.73
2022-09-21T08:43:11.491Z,58.56
2022-09-21T08:47:01.228Z,58.42
2022-09-21T08:50:44.594Z,58.46
2022-09-21T08:54:35.013Z,58.40
2022-09-21T08:58:25.525Z,58.24
2022-09-21T09:02:28.895Z,58.22
2022-09-21T09:06:16.307Z,58.31
2022-09-21T09:10:23.731Z,58.33
2022-09-21T09:14:21.631Z,58.48
2022-09-21T09:18:14.495Z,58.26
2022-09-21T09:21:52.852Z,57.94
2022-09-21T09:25:38.845Z,57.81
2022-09-21T09:29:44.421Z,57.73
2022-09-21T09:33:44.893Z,58.14
2022-09-21T09:37:31.085Z,58.61
2022-09-21T09:41:17.910Z,58.84
2022-09-21T09:45:18.654Z,58.92
2022-09-21T09:49:13.158Z,59.08
2022-09-21T09:52:54.011Z,59.06
2022-09-21T09:56:32.700Z,59.19
2022-09-21T10:00:14.882Z,59.12
2022-09-21T10:04:15.685Z,58.81
2022-09-21T10:07:54.693Z,58.62
2022-09-21T10:11:38.618Z,57.91
2022-09-21T10:15:45.757Z,57.22
2022-09-21T10:18:57.054Z,56.71
2022-09-21T10:22:34.960Z,55.75
2022-09-21T10:26:15.079Z,54.62
2022-09-21T10:29:52.515Z,54.13
2022-09-21T10:33:31.002Z,54.04
2022-09-21T10:37:33.770Z,54.04
2022-09-21T10:41:12.137Z,54.12
2022-09-21T10:45:04.211Z,54.44
2022-09-21T10:48:46.336Z,54.56
2022-09-21T10:52:35.174Z,54.58
2022-09-21T10:56:17.403Z,54.97
2022-09-21T10:59:56.579Z,55.15
2022-09-21T11:03:46.945Z,55.70
2022-09-21T11:08:16.875Z,55.95
2022-09-21T11:12:02.319Z,56.25
2022-09-21T11:16:24.962Z,56.44
2022-09-21T11:19:43.983Z,56.62
2022-09-21T11:24:03.545Z,56.85
2022-09-21T11:27:46.134Z,56.92
2022-09-21T11:31:35.198Z,56.88
2022-09-21T11:35:31.313Z,56.88
2022-09-21T11:39:28.941Z,56.82
2022-09-21T11:43:13.921Z,56.79
2022-09-21T11:46:54.145Z,56.62
2022-09-21T11:54:34.137Z,56.62
2022-09-21T11:58:25.550Z,56.74
2022-09-21T12:02:39.396Z,56.79
2022-09-21T12:06:28.533Z,56.83
2022-09-21T12:10:24.307Z,57.06
2022-09-21T12:14:08.025Z,57.27
2022-09-21T12:17:57.426Z,57.36
2022-09-21T12:21:42.990Z,57.28
2022-09-21T12:25:31.953Z,57.31
2022-09-21T12:29:30.472Z,57.01
2022-09-21T12:33:44.354Z,56.87
2022-09-21T12:37:46.393Z,56.63
2022-09-21T12:41:45.828Z,56.57
2022-09-21T12:45:28.808Z,56.63
2022-09-21T12:49:21.908Z,56.24
2022-09-21T12:52:59.870Z,56.12
2022-09-21T12:56:43.551Z,55.79
2022-09-21T13:00:26.134Z,55.46
2022-09-21T13:04:31.902Z,55.34
2022-09-21T13:08:16.231Z,55.32
2022-09-21T13:11:56.301Z,55.50
2022-09-21T13:15:44.969Z,55.46
2022-09-21T13:19:32.029Z,55.35
2022-09-21T13:23:01.537Z,55.19
2022-09-21T13:26:43.948Z,55.20
2022-09-21T13:30:49.229Z,55.13
2022-09-21T13:34:38.227Z,55.58
2022-09-21T13:38:46.344Z,56.10
2022-09-21T13:42:02.798Z,56.23
2022-09-21T13:45:42.414Z,56.69
2022-09-21T13:49:31.220Z,57.10
2022-09-21T13:53:34.235Z,57.45
2022-09-21T13:57:22.253Z,57.98
2022-09-21T14:05:33.119Z,58.44
2022-09-21T14:09:30.434Z,58.68
2022-09-21T14:13:28.826Z,58.98
2022-09-21T14:17:41.441Z,59.35
2022-09-21T14:21:20.391Z,59.52
2022-09-21T14:25:23.663Z,59.66
2022-09-21T14:29:34.137Z,59.65
2022-09-21T14:33:44.707Z,59.52
2022-09-21T14:37:37.432Z,59.52
2022-09-21T14:41:19.471Z,59.32
2022-09-21T14:44:59.998Z,59.06
2022-09-21T14:48:54.537Z,58.87
2022-09-21T14:52:43.687Z,58.85
2022-09-21T14:56:24.128Z,58.97
2022-09-21T15:00:18.272Z,59.19
2022-09-21T15:04:25.369Z,59.80
2022-09-21T15:08:28.595Z,59.44
2022-09-21T15:12:15.556Z,59.19
2022-09-21T15:16:27.969Z,58.89
2022-09-21T15:20:17.905Z,59.02
2022-09-21T15:23:56.548Z,59.39
2022-09-21T15:27:35.723Z,59.23
2022-09-21T15:31:12.730Z,59.18
2022-09-21T15:35:02.328Z,58.01
2022-09-21T15:38:47.515Z,57.33
2022-09-21T15:42:24.873Z,57.07
2022-09-21T15:46:07.492Z,56.69
2022-09-21T15:49:45.979Z,57.29
2022-09-21T15:53:30.039Z,57.75
2022-09-21T15:57:25.662Z,57.93
2022-09-21T16:01:17.063Z,57.49
2022-09-21T16:04:56.578Z,58.14
2022-09-21T16:08:38.021Z,58.39
2022-09-21T16:12:34.736Z,58.32
2022-09-21T16:16:14.603Z,59.11
2022-09-21T16:19:52.517Z,59.05
2022-09-21T16:23:34.223Z,59.66
2022-09-21T16:27:06.358Z,59.08
2022-09-21T16:30:50.269Z,59.93
2022-09-21T16:34:32.632Z,60.61
2022-09-21T16:38:10.494Z,60.66
2022-09-21T16:41:51.873Z,60.24
2022-09-21T16:45:31.916Z,60.05
2022-09-21T16:49:13.135Z,59.21
2022-09-21T16:52:50.148Z,59.42
2022-09-21T16:56:27.708Z,59.53
2022-09-21T17:00:11.181Z,59.80
2022-09-21T17:03:48.973Z,60.04
2022-09-21T17:07:26.939Z,60.30
2022-09-21T17:11:03.887Z,60.57
2022-09-21T17:14:46.197Z,60.80
2022-09-21T17:18:24.736Z,61.06
2022-09-21T17:22:05.600Z,61.37
2022-09-21T17:25:42.619Z,61.58
2022-09-21T17:29:25.926Z,61.88
2022-09-21T17:33:03.265Z,61.98
2022-09-21T17:36:41.140Z,62.10
2022-09-21T17:40:18.922Z,62.22
2022-09-21T17:44:17.247Z,62.33
2022-09-21T17:47:56.428Z,62.16
2022-09-21T17:51:34.090Z,62.21
2022-09-21T17:55:13.602Z,62.46
2022-09-21T17:59:01.992Z,62.73
2022-09-21T18:02:40.245Z,63.00
2022-09-21T18:06:18.049Z,63.23
2022-09-21T18:09:55.199Z,63.37
2022-09-21T18:13:45.141Z,63.52
2022-09-21T18:17:36.747Z,63.58
2022-09-21T18:21:21.214Z,63.76
2022-09-21T18:24:59.002Z,63.87
2022-09-21T18:28:49.977Z,64.12
2022-09-21T18:32:40.930Z,64.26
2022-09-21T18:36:25.169Z,64.37
2022-09-21T18:40:16.366Z,64.50
2022-09-21T18:44:00.269Z,64.61
2022-09-21T18:47:48.126Z,64.79
2022-09-21T18:51:49.628Z,64.96
2022-09-21T18:55:08.359Z,65.16
2022-09-21T18:58:46.768Z,65.16
2022-09-21T19:02:25.734Z,64.86
2022-09-21T19:06:18.551Z,64.58
2022-09-21T19:10:06.017Z,64.65
2022-09-21T19:14:01.828Z,64.97
2022-09-21T19:17:39.557Z,65.16
2022-09-21T19:21:46.443Z,65.54
2022-09-21T19:25:36.490Z,65.48
2022-09-21T19:29:53.827Z,65.75
2022-09-21T19:33:49.441Z,65.82
2022-09-21T19:37:29.977Z,66.07
2022-09-21T19:41:33.262Z,65.99
2022-09-21T19:45:45.280Z,66.12
2022-09-21T19:49:30.407Z,66.09
2022-09-21T19:53:11.476Z,66.18
2022-09-21T19:56:55.281Z,66.22
2022-09-21T20:00:33.459Z,66.26
2022-09-21T20:04:15.707Z,66.27
2022-09-21T20:08:08.152Z,66.21
2022-09-21T20:12:18.720Z,66.34
2022-09-21T20:16:19.276Z,66.43
2022-09-21T20:20:11.399Z,66.55
2022-09-21T20:23:56.939Z,66.39
2022-09-21T20:27:52.457Z,66.35
2022-09-21T20:31:30.841Z,66.26
2022-09-21T20:35:20.577Z,66.26
2022-09-21T20:38:58.149Z,66.18
2022-09-21T20:42:36.681Z,66.20
2022-09-21T20:46:14.287Z,66.25
2022-09-21T20:49:52.135Z,66.44
2022-09-21T20:53:31.314Z,67.50
2022-09-21T20:57:08.558Z,66.76
2022-09-21T21:00:45.483Z,66.73
2022-09-21T21:04:24.199Z,66.56
2022-09-21T21:08:02.158Z,66.39
2022-09-21T21:11:40.054Z,66.56
2022-09-21T21:15:16.847Z,66.05
2022-09-21T21:18:55.163Z,65.66
2022-09-21T21:22:33.617Z,65.37
2022-09-21T21:26:10.970Z,65.04
2022-09-21T21:29:50.557Z,64.56
2022-09-21T21:33:29.275Z,64.28
2022-09-21T21:37:06.415Z,63.74
2022-09-21T21:40:44.217Z,63.53
2022-09-21T21:44:21.741Z,63.29
2022-09-21T21:47:59.405Z,63.14
2022-09-21T21:51:36.552Z,62.80
2022-09-21T21:55:33.879Z,62.66
2022-09-21T21:58:55.259Z,62.74
2022-09-21T22:02:32.522Z,62.19
2022-09-21T22:06:11.443Z,61.86
2022-09-21T22:09:49.489Z,61.97
2022-09-21T22:13:31.766Z,61.92
2022-09-21T22:17:11.647Z,61.64
2022-09-21T22:20:51.458Z,61.47
2022-09-21T22:24:30.965Z,61.90
2022-09-21T22:28:07.870Z,61.52
2022-09-21T22:31:48.141Z,61.55
2022-09-21T22:35:25.359Z,61.54
2022-09-21T22:39:05.534Z,61.64
2022-09-21T22:42:46.556Z,61.46
2022-09-21T22:46:25.740Z,60.95
2022-09-21T22:50:02.974Z,61.31
2022-09-21T22:53:40.859Z,61.30
2022-09-21T22:57:17.803Z,61.30
2022-09-21T23:01:06.327Z,61.01
2022-09-21T23:04:43.977Z,60.96
2022-09-21T23:08:21.152Z,60.93
2022-09-21T23:11:58.999Z,61.54
2022-09-21T23:15:36.862Z,60.57
2022-09-21T23:19:14.935Z,60.82
2022-09-21T23:22:52.505Z,60.29
2022-09-21T23:26:49.702Z,60.75
2022-09-21T23:30:06.800Z,61.27
2022-09-21T23:33:47.118Z,60.67
2022-09-21T23:37:24.679Z,61.52
2022-09-21T23:41:03.791Z,61.44
2022-09-21T23:44:40.636Z,61.24
2022-09-21T23:48:20.742Z,61.79
2022-09-21T23:51:57.794Z,61.88
2022-09-21T23:55:34.574Z,62.18
2022-09-21T23:59:12.699Z,62.13
